createdAt,value
2018-06-27T00:03:32.602Z,59.20
2018-06-27T00:10:38.908Z,59.00
2018-06-27T00:17:45.170Z,59.30
2018-06-27T00:21:18.476Z,59.60
2018-06-27T00:24:51.783Z,59.90
2018-06-27T00:28:25.075Z,60.10
2018-06-27T00:31:59.242Z,61.00
2018-06-27T00:35:32.488Z,60.50
2018-06-27T00:39:08.153Z,60.60
2018-06-27T00:42:41.542Z,60.50
2018-06-27T00:46:14.846Z,60.50
2018-06-27T00:49:48.170Z,60.60
2018-06-27T00:53:25.665Z,60.70
2018-06-27T00:56:58.953Z,60.70
2018-06-27T01:00:32.239Z,60.80
2018-06-27T01:04:05.575Z,61.00
2018-06-27T01:07:38.849Z,61.10
2018-06-27T01:11:12.154Z,61.40
2018-06-27T01:14:45.481Z,61.40
2018-06-27T01:18:18.776Z,61.30
2018-06-27T01:21:52.032Z,61.40
2018-06-27T01:25:25.371Z,61.70
2018-06-27T01:28:58.693Z,61.90
2018-06-27T01:32:31.945Z,61.90
2018-06-27T01:36:05.382Z,61.90
2018-06-27T01:39:38.701Z,62.20
2018-06-27T01:43:11.968Z,62.50
2018-06-27T01:46:45.348Z,62.60
2018-06-27T01:50:18.601Z,63.00
2018-06-27T01:53:51.871Z,63.20
2018-06-27T01:57:25.153Z,63.30
2018-06-27T02:00:58.455Z,63.40
2018-06-27T02:04:31.733Z,63.30
2018-06-27T02:08:05.221Z,63.30
2018-06-27T02:11:38.522Z,63.30
2018-06-27T02:15:11.783Z,63.50
2018-06-27T02:18:45.081Z,63.30
2018-06-27T02:22:18.349Z,63.40
2018-06-27T02:25:51.631Z,63.20
2018-06-27T02:29:24.891Z,63.20
2018-06-27T02:32:58.148Z,63.10
2018-06-27T02:36:31.391Z,63.20
2018-06-27T02:40:04.764Z,63.00
2018-06-27T02:43:38.366Z,62.90
2018-06-27T02:47:11.672Z,62.80
2018-06-27T02:50:44.944Z,62.70
2018-06-27T02:54:18.230Z,62.60
2018-06-27T02:57:51.522Z,62.60
2018-06-27T03:04:57.788Z,62.10
2018-06-27T03:08:31.052Z,62.00
2018-06-27T03:12:04.344Z,61.80
2018-06-27T03:15:37.667Z,61.90
2018-06-27T03:19:10.930Z,61.90
2018-06-27T03:22:44.665Z,61.70
2018-06-27T03:26:17.895Z,61.50
2018-06-27T03:29:51.216Z,61.40
2018-06-27T03:33:24.492Z,61.60
2018-06-27T03:36:57.833Z,61.50
2018-06-27T03:40:31.165Z,61.50
2018-06-27T03:44:04.493Z,61.60
2018-06-27T03:47:37.725Z,61.50
2018-06-27T03:51:11.054Z,61.40
2018-06-27T03:54:44.362Z,61.40
2018-06-27T03:58:18.631Z,61.20
2018-06-27T04:01:51.911Z,60.80
2018-06-27T04:05:25.165Z,60.80
2018-06-27T04:08:58.451Z,60.60
2018-06-27T04:12:31.758Z,60.50
2018-06-27T04:16:05.103Z,60.10
2018-06-27T04:19:38.414Z,60.10
2018-06-27T04:23:11.692Z,60.00
2018-06-27T04:26:44.957Z,59.90
2018-06-27T04:30:18.255Z,59.90
2018-06-27T04:33:51.727Z,59.70
2018-06-27T04:37:25.097Z,59.50
2018-06-27T04:40:58.358Z,59.30
2018-06-27T04:44:31.617Z,59.30
2018-06-27T04:48:05.034Z,59.30
2018-06-27T04:51:38.321Z,59.30
2018-06-27T04:55:11.712Z,59.10
2018-06-27T04:58:45.158Z,58.90
2018-06-27T05:02:18.537Z,58.70
2018-06-27T05:05:51.892Z,58.70
2018-06-27T05:09:25.146Z,58.50
2018-06-27T05:12:58.592Z,58.40
2018-06-27T05:16:31.863Z,58.40
2018-06-27T05:20:05.156Z,58.10
2018-06-27T05:23:38.432Z,58.00
2018-06-27T05:27:11.799Z,58.50
2018-06-27T05:30:45.032Z,57.80
2018-06-27T05:34:18.354Z,57.60
2018-06-27T05:37:51.609Z,57.60
2018-06-27T05:41:24.852Z,57.50
2018-06-27T05:44:58.180Z,57.50
2018-06-27T05:48:31.467Z,57.60
2018-06-27T05:52:04.833Z,57.70
2018-06-27T05:55:38.493Z,57.70
2018-06-27T05:59:11.819Z,57.80
2018-06-27T06:02:45.164Z,58.70
2018-06-27T06:06:18.854Z,58.40
2018-06-27T06:09:52.190Z,58.50
2018-06-27T06:13:25.460Z,58.60
2018-06-27T06:16:58.824Z,58.40
2018-06-27T06:20:32.161Z,58.30
2018-06-27T06:24:05.959Z,58.20
2018-06-27T06:27:39.520Z,58.10
2018-06-27T06:31:12.906Z,58.00
2018-06-27T06:34:46.428Z,57.90
2018-06-27T06:38:19.707Z,57.70
2018-06-27T06:41:53.217Z,57.70
2018-06-27T06:45:26.740Z,57.50
2018-06-27T06:49:00.137Z,57.30
2018-06-27T06:52:33.837Z,57.10
2018-06-27T06:56:07.266Z,56.80
2018-06-27T06:59:40.624Z,55.80
2018-06-27T07:03:13.983Z,55.40
2018-06-27T07:06:47.665Z,54.60
2018-06-27T07:10:21.065Z,54.30
2018-06-27T07:13:54.478Z,54.00
2018-06-27T07:17:27.767Z,52.80
2018-06-27T07:21:01.091Z,52.60
2018-06-27T07:24:34.672Z,52.40
2018-06-27T07:28:08.053Z,50.70
2018-06-27T07:31:41.384Z,50.50
2018-06-27T07:35:14.772Z,49.60
2018-06-27T07:38:48.108Z,48.70
2018-06-27T07:42:21.458Z,48.50
2018-06-27T07:45:54.837Z,48.70
2018-06-27T07:49:28.212Z,49.00
2018-06-27T07:53:01.630Z,47.90
2018-06-27T07:56:34.917Z,47.80
2018-06-27T08:00:09.523Z,47.60
2018-06-27T08:03:42.909Z,47.30
2018-06-27T08:07:16.316Z,46.80
2018-06-27T08:10:49.829Z,46.90
2018-06-27T08:14:23.189Z,46.60
2018-06-27T08:17:56.512Z,46.20
2018-06-27T08:21:30.517Z,45.90
2018-06-27T08:25:03.895Z,45.80
2018-06-27T08:28:37.224Z,45.50
2018-06-27T08:32:10.578Z,45.20
2018-06-27T08:35:44.063Z,45.00
2018-06-27T08:39:17.412Z,44.70
2018-06-27T08:42:50.961Z,44.40
2018-06-27T08:46:24.344Z,44.30
2018-06-27T08:49:57.816Z,44.00
2018-06-27T08:53:31.018Z,43.90
2018-06-27T08:57:04.680Z,42.60
2018-06-27T09:00:38.576Z,42.60
2018-06-27T09:04:12.219Z,43.10
2018-06-27T09:07:45.544Z,42.40
2018-06-27T09:11:18.960Z,41.80
2018-06-27T09:14:53.159Z,41.60
2018-06-27T09:18:26.424Z,41.60
2018-06-27T09:21:59.740Z,41.30
2018-06-27T09:25:32.973Z,40.60
2018-06-27T09:29:06.216Z,40.30
2018-06-27T09:32:39.884Z,38.20
2018-06-27T09:36:13.412Z,37.60
2018-06-27T09:43:19.764Z,35.00
2018-06-27T09:46:53.165Z,35.10
2018-06-27T09:50:26.970Z,34.20
2018-06-27T09:54:00.310Z,34.60
2018-06-27T09:57:33.715Z,35.40
2018-06-27T10:01:07.106Z,35.70
2018-06-27T10:04:41.826Z,34.80
2018-06-27T10:08:15.260Z,33.50
2018-06-27T10:11:48.633Z,33.70
2018-06-27T10:15:22.193Z,34.50
2018-06-27T10:18:55.650Z,34.50
2018-06-27T10:22:29.426Z,35.00
2018-06-27T10:26:02.588Z,35.00
2018-06-27T10:29:37.402Z,34.80
2018-06-27T10:33:11.449Z,34.60
2018-06-27T10:40:17.872Z,34.50
2018-06-27T10:43:51.438Z,34.30
2018-06-27T10:47:24.795Z,33.90
2018-06-27T10:50:58.192Z,33.70
2018-06-27T10:54:31.621Z,33.20
2018-06-27T10:58:05.045Z,33.50
2018-06-27T11:01:38.373Z,34.10
2018-06-27T11:05:12.017Z,34.40
2018-06-27T11:12:18.881Z,33.90
2018-06-27T11:15:52.178Z,34.10
2018-06-27T11:19:25.429Z,34.00
2018-06-27T11:22:58.668Z,34.10
2018-06-27T11:26:31.913Z,33.80
2018-06-27T11:30:05.188Z,34.40
2018-06-27T11:33:38.438Z,34.80
2018-06-27T11:37:11.681Z,35.50
2018-06-27T11:40:44.917Z,34.70
2018-06-27T11:44:18.421Z,35.10
2018-06-27T11:47:51.648Z,35.30
2018-06-27T11:51:24.913Z,34.50
2018-06-27T11:55:03.460Z,33.90
2018-06-27T11:58:36.716Z,35.00
2018-06-27T12:02:09.963Z,35.70
2018-06-27T12:05:43.234Z,35.90
2018-06-27T12:09:16.468Z,35.70
2018-06-27T12:12:49.713Z,36.00
2018-06-27T12:16:22.997Z,34.60
2018-06-27T12:19:56.240Z,34.30
2018-06-27T12:23:29.496Z,34.20
2018-06-27T12:27:02.873Z,34.10
2018-06-27T12:30:36.114Z,33.90
2018-06-27T12:34:09.380Z,34.30
2018-06-27T12:37:42.642Z,35.70
2018-06-27T12:41:16.013Z,35.90
2018-06-27T12:44:49.250Z,36.00
2018-06-27T12:48:22.596Z,36.00
2018-06-27T12:51:55.864Z,35.40
2018-06-27T12:55:29.198Z,34.00
2018-06-27T12:59:02.523Z,33.70
2018-06-27T13:02:35.830Z,34.00
2018-06-27T13:06:09.092Z,35.00
2018-06-27T13:09:42.423Z,35.50
2018-06-27T13:13:15.685Z,35.70
2018-06-27T13:16:48.921Z,35.80
2018-06-27T13:20:22.142Z,36.50
2018-06-27T13:23:55.487Z,35.30
2018-06-27T13:27:28.803Z,34.60
2018-06-27T13:31:02.131Z,34.90
2018-06-27T13:34:35.397Z,34.80
2018-06-27T13:38:08.663Z,33.60
2018-06-27T13:41:41.911Z,31.70
2018-06-27T13:45:15.176Z,32.00
2018-06-27T13:48:48.420Z,31.90
2018-06-27T13:52:21.689Z,31.30
2018-06-27T13:55:54.951Z,31.30
2018-06-27T13:59:28.203Z,30.70
2018-06-27T14:03:01.464Z,32.00
2018-06-27T14:06:34.699Z,32.20
2018-06-27T14:10:07.960Z,31.90
2018-06-27T14:13:41.209Z,31.80
2018-06-27T14:17:14.488Z,32.20
2018-06-27T14:20:47.759Z,32.20
2018-06-27T14:24:21.077Z,32.70
2018-06-27T14:31:27.328Z,32.60
2018-06-27T14:42:06.663Z,31.80
2018-06-27T14:45:39.889Z,31.60
2018-06-27T14:49:13.183Z,31.70
2018-06-27T14:52:46.487Z,31.90
2018-06-27T14:56:19.771Z,31.40
2018-06-27T14:59:53.433Z,31.10
2018-06-27T15:03:27.003Z,30.20
2018-06-27T15:07:00.517Z,29.70
2018-06-27T15:10:34.669Z,28.80
2018-06-27T15:14:07.951Z,28.80
2018-06-27T15:17:41.220Z,28.90
2018-06-27T15:21:14.452Z,28.90
2018-06-27T15:24:47.694Z,27.60
2018-06-27T15:28:20.920Z,27.00
2018-06-27T15:31:54.160Z,26.50
2018-06-27T15:35:27.411Z,27.40
2018-06-27T15:39:00.660Z,27.80
2018-06-27T15:42:33.898Z,28.00
2018-06-27T15:46:07.128Z,27.50
2018-06-27T15:49:40.376Z,27.90
2018-06-27T15:53:13.628Z,27.60
2018-06-27T15:56:46.936Z,27.50
2018-06-27T16:00:20.168Z,27.30
2018-06-27T16:07:26.432Z,27.50
2018-06-27T16:10:59.709Z,27.60
2018-06-27T16:14:32.972Z,27.40
2018-06-27T16:18:06.308Z,27.40
2018-06-27T16:21:39.550Z,27.30
2018-06-27T16:25:12.802Z,27.10
2018-06-27T16:28:46.116Z,27.70
2018-06-27T16:32:19.361Z,27.40
2018-06-27T16:39:25.640Z,28.20
2018-06-27T16:42:58.932Z,29.00
2018-06-27T16:46:32.161Z,29.50
2018-06-27T16:53:38.632Z,30.70
2018-06-27T16:57:11.897Z,31.30
2018-06-27T17:00:45.157Z,40.40
2018-06-27T17:04:18.398Z,41.90
2018-06-27T17:07:51.623Z,42.60
2018-06-27T17:11:24.836Z,42.10
2018-06-27T17:14:58.088Z,43.10
2018-06-27T17:18:31.329Z,43.10
2018-06-27T17:22:04.557Z,43.60
2018-06-27T17:25:37.808Z,43.10
2018-06-27T17:29:11.039Z,43.00
2018-06-27T17:32:44.349Z,42.90
2018-06-27T17:36:17.583Z,42.50
2018-06-27T17:39:50.842Z,42.40
2018-06-27T17:43:24.110Z,42.00
2018-06-27T17:46:57.341Z,40.90
2018-06-27T17:50:30.585Z,41.40
2018-06-27T17:54:04.584Z,41.50
2018-06-27T18:01:10.804Z,41.10
2018-06-27T18:04:44.069Z,41.20
2018-06-27T18:08:17.318Z,41.00
2018-06-27T18:11:50.574Z,40.80
2018-06-27T18:15:23.819Z,40.90
2018-06-27T18:18:57.928Z,41.00
2018-06-27T18:22:31.203Z,41.10
2018-06-27T18:26:04.728Z,41.00
2018-06-27T18:29:37.985Z,41.00
2018-06-27T18:33:11.227Z,41.20
2018-06-27T18:36:44.510Z,41.30
2018-06-27T18:40:17.858Z,41.40
2018-06-27T18:43:51.071Z,41.70
2018-06-27T18:47:24.335Z,41.80
2018-06-27T18:50:57.597Z,41.80
2018-06-27T18:54:30.812Z,42.00
2018-06-27T18:58:04.104Z,42.00
2018-06-27T19:01:37.339Z,42.10
2018-06-27T19:05:10.585Z,42.40
2018-06-27T19:12:16.813Z,42.40
2018-06-27T19:15:50.089Z,42.50
2018-06-27T19:19:23.327Z,42.60
2018-06-27T19:22:56.556Z,42.50
2018-06-27T19:26:29.792Z,42.60
2018-06-27T19:30:03.024Z,42.80
2018-06-27T19:33:36.322Z,43.10
2018-06-27T19:37:09.487Z,43.30
2018-06-27T19:44:16.118Z,44.00
2018-06-27T19:47:49.714Z,44.20
2018-06-27T19:51:23.017Z,44.30
2018-06-27T19:54:56.196Z,44.50
2018-06-27T19:58:29.437Z,44.80
2018-06-27T20:02:02.709Z,45.00
2018-06-27T20:05:35.952Z,45.30
2018-06-27T20:09:10.037Z,45.50
2018-06-27T20:12:43.320Z,45.70
2018-06-27T20:16:16.553Z,46.00
2018-06-27T20:19:49.806Z,46.30
2018-06-27T20:23:23.336Z,46.50
2018-06-27T20:26:56.616Z,46.70
2018-06-27T20:34:03.724Z,47.00
2018-06-27T20:37:36.976Z,47.30
2018-06-27T20:41:10.221Z,47.40
2018-06-27T20:44:43.452Z,47.70
2018-06-27T20:48:16.716Z,47.90
2018-06-27T20:51:49.957Z,48.10
2018-06-27T20:55:23.314Z,48.20
2018-06-27T20:58:56.679Z,48.40
2018-06-27T21:02:29.920Z,48.50
2018-06-27T21:06:03.147Z,48.70
2018-06-27T21:09:36.400Z,48.90
2018-06-27T21:13:09.649Z,49.00
2018-06-27T21:16:42.905Z,49.30
2018-06-27T21:20:16.195Z,49.50
2018-06-27T21:23:49.388Z,49.60
2018-06-27T21:27:22.634Z,49.70
2018-06-27T21:34:28.842Z,49.90
2018-06-27T21:38:02.073Z,50.10
2018-06-27T21:41:35.311Z,50.30
2018-06-27T21:48:41.723Z,50.60
2018-06-27T21:52:14.971Z,50.70
2018-06-27T21:55:48.203Z,50.80
2018-06-27T21:59:21.457Z,51.00
2018-06-27T22:02:54.836Z,51.20
2018-06-27T22:06:28.092Z,51.40
2018-06-27T22:10:01.314Z,51.40
2018-06-27T22:13:34.551Z,51.60
2018-06-27T22:17:07.788Z,51.70
2018-06-27T22:20:41.033Z,51.90
2018-06-27T22:24:14.257Z,51.90
2018-06-27T22:27:47.512Z,52.00
2018-06-27T22:34:53.753Z,52.10
2018-06-27T22:38:26.994Z,52.30
2018-06-27T22:42:00.228Z,52.60
2018-06-27T22:45:33.452Z,52.70
2018-06-27T22:49:06.692Z,52.90
2018-06-27T22:52:39.932Z,52.80
2018-06-27T22:56:13.179Z,52.90
2018-06-27T22:59:46.423Z,52.90
2018-06-27T23:03:19.664Z,53.00
2018-06-27T23:06:52.928Z,53.20
2018-06-27T23:10:26.173Z,53.30
2018-06-27T23:13:59.409Z,53.50
2018-06-27T23:17:32.648Z,53.60
2018-06-27T23:21:05.905Z,53.50
2018-06-27T23:28:12.137Z,53.40
2018-06-27T23:31:45.387Z,53.60
2018-06-27T23:35:18.628Z,53.80
2018-06-27T23:38:51.856Z,54.00
2018-06-27T23:42:25.101Z,54.20
2018-06-27T23:45:58.333Z,54.30
2018-06-27T23:49:31.624Z,54.60
2018-06-27T23:53:04.992Z,55.20
2018-06-27T23:56:38.260Z,55.50
